Time;durP1;ratioP1;P1;durP2;ratioP2;P2;SDS_P1;SDS_P2;PMS_P1;PMS_P2;Temp;Humidity;BMP_temperature;BMP_pressure;BME280_temperature;BME280_humidity;BME280_pressure;Samples;Min_cycle;Max_cycle;Signal;HPM_P1;HPM_P2
2022/09/27 00:00:17;;;;;;;4.23;3.83;;;11.70;90.20;;;11.55;78.34;96225.47;5119385;27;20538;-75
2022/09/27 00:02:45;;;;;;;4.50;3.87;;;11.70;90.30;;;11.58;78.87;96211.41;5125332;27;20493;-77
2022/09/27 00:05:12;;;;;;;5.67;4.17;;;11.60;90.90;;;11.50;79.17;96214.66;5117705;27;20498;-77
2022/09/27 00:07:40;;;;;;;6.20;3.63;;;11.60;91.20;;;11.42;81.50;96201.63;5104575;27;20822;-76
2022/09/27 00:10:09;;;;;;;4.57;3.53;;;11.60;92.90;;;11.49;81.22;96207.63;5124330;27;20499;-78
2022/09/27 00:12:38;;;;;;;4.97;4.03;;;11.60;93.00;;;11.46;82.17;96205.44;5127415;27;20449;-77
2022/09/27 00:15:09;;;;;;;4.90;3.80;;;11.50;93.40;;;11.41;80.88;96194.59;5110310;27;20966;-76
2022/09/27 00:17:36;;;;;;;4.07;3.70;;;11.50;92.90;;;11.07;81.07;96147.19;5112588;27;20564;-76
2022/09/27 00:20:07;;;;;;;5.03;4.27;;;11.50;93.00;;;11.28;81.58;96193.22;5131636;27;20476;-76
2022/09/27 00:22:35;;;;;;;4.03;3.60;;;11.40;93.30;;;11.28;82.47;96190.50;5108191;28;21044;-76
2022/09/27 00:25:04;;;;;;;5.60;4.30;;;11.40;94.20;;;11.18;82.37;96181.25;5109828;28;20515;-76
2022/09/27 00:27:31;;;;;;;5.13;3.93;;;11.40;93.80;;;11.24;82.69;96184.00;5110242;27;20473;-76
2022/09/27 00:30:00;;;;;;;4.00;3.60;;;11.30;93.80;;;11.15;82.28;96162.09;5113301;27;20457;-76
2022/09/27 00:32:28;;;;;;;3.50;3.20;;;11.30;93.90;;;10.76;81.95;96106.50;5084403;27;20448;-76
2022/09/27 00:34:55;;;;;;;5.60;4.23;;;11.30;94.00;;;11.30;82.03;96172.94;5115032;27;20678;-77
2022/09/27 00:37:24;;;;;;;4.00;3.60;;;11.40;94.00;;;11.21;82.95;96174.53;5110309;27;20482;-76
2022/09/27 00:39:51;;;;;;;5.23;3.93;;;11.30;93.90;;;11.33;82.11;96172.41;5101452;27;20454;-77
2022/09/27 00:42:19;;;;;;;5.17;4.57;;;11.30;94.20;;;11.05;82.68;96125.81;5106794;27;20470;-76
2022/09/27 00:45:16;;;;;;;5.03;4.20;;;11.30;94.80;;;11.16;83.37;96161.00;5104052;27;20472;-76
2022/09/27 00:47:51;;;;;;;5.97;4.00;;;11.30;95.20;;;11.08;84.13;96148.81;5119294;27;21280;-76
2022/09/27 00:50:33;;;;;;;7.93;4.23;;;11.20;95.20;;;11.16;83.72;96155.59;5098484;27;20975;-76
2022/09/27 00:53:10;;;;;;;4.63;4.23;;;11.20;95.50;;;11.14;83.86;96146.91;5114626;27;20527;-76
2022/09/27 00:55:43;;;;;;;4.90;4.13;;;11.20;95.90;;;11.01;85.37;96143.66;5112701;27;21013;-76
2022/09/27 00:58:12;;;;;;;6.70;4.27;;;11.10;97.10;;;11.02;84.81;96153.38;5114000;27;20467;-77
2022/09/27 01:00:46;;;;;;;5.27;4.30;;;11.10;96.90;;;11.19;84.59;96144.25;5113983;27;20483;-76
2022/09/27 01:03:32;;;;;;;5.27;4.77;;;11.10;97.90;;;11.15;85.58;96132.34;5119002;28;20531;-76
2022/09/27 01:06:00;;;;;;;5.20;4.10;;;11.10;98.60;;;11.14;84.45;96145.03;5098744;28;20466;-77
2022/09/27 01:08:27;;;;;;;5.77;5.17;;;11.10;97.90;;;11.09;85.86;96134.22;5097977;28;20529;-75
2022/09/27 01:11:13;;;;;;;4.30;3.67;;;11.10;99.00;;;10.76;84.88;96098.41;5115639;28;20455;-76
2022/09/27 01:13:49;;;;;;;6.40;4.20;;;11.10;97.10;;;10.90;85.83;96106.84;5120578;28;20468;-75
2022/09/27 01:16:30;;;;;;;4.77;4.33;;;11.10;98.60;;;10.73;85.70;96091.66;5100271;28;20962;-77
2022/09/27 01:19:14;;;;;;;5.20;4.37;;;11.10;97.40;;;10.91;85.40;96127.38;5115397;28;20458;-76
2022/09/27 01:21:52;;;;;;;5.67;4.57;;;11.00;97.70;;;11.00;84.69;96125.81;5112544;28;20976;-78
2022/09/27 01:24:55;;;;;;;4.00;3.50;;;11.00;97.60;;;11.05;83.61;96125.81;5097383;28;20508;-75
2022/09/27 01:28:20;;;;;;;3.83;3.33;;;11.00;95.80;;;10.24;83.23;96029.84;5114803;28;20547;-77
2022/09/27 01:30:54;;;;;;;3.20;2.90;;;11.00;94.60;;;10.98;82.90;96117.13;5120599;28;20480;-75
2022/09/27 01:33:39;;;;;;;8.00;3.17;;;11.00;95.00;;;11.09;82.72;96104.50;5116615;27;20519;-76
2022/09/27 01:36:19;;;;;;;2.40;2.20;;;11.10;94.50;;;10.89;82.58;96124.13;5115246;27;20450;-76
2022/09/27 01:39:02;;;;;;;2.90;1.83;;;11.00;94.30;;;10.80;82.54;96114.91;5122391;27;20453;-75
2022/09/27 01:41:39;;;;;;;2.23;2.10;;;10.90;93.20;;;10.88;81.95;96107.09;5119798;27;20476;-77
2022/09/27 01:44:17;;;;;;;2.70;2.30;;;10.90;93.50;;;10.97;82.12;96109.31;5120238;27;20457;-77
2022/09/27 01:46:51;;;;;;;2.17;1.90;;;10.90;93.40;;;10.67;83.08;96108.09;5117665;27;20460;-76
2022/09/27 01:49:27;;;;;;;2.53;1.70;;;10.80;93.70;;;10.70;82.67;96111.09;5115132;27;20992;-79
2022/09/27 01:51:58;;;;;;;2.43;1.63;;;10.80;93.40;;;10.85;81.65;96113.03;5126015;27;20450;-79
2022/09/27 01:54:34;;;;;;;3.10;2.10;;;10.80;93.60;;;10.92;82.38;96107.41;5106005;27;20506;-78
2022/09/27 01:57:03;;;;;;;1.70;1.60;;;10.80;94.20;;;10.61;83.15;96082.97;5113470;27;20466;-77
2022/09/27 01:59:37;;;;;;;1.43;1.33;;;10.80;94.60;;;10.42;84.90;96091.50;5112240;27;20457;-77
2022/09/27 02:02:11;;;;;;;1.80;1.70;;;10.70;95.40;;;10.34;84.46;96075.75;5115744;27;20476;-76
2022/09/27 02:04:42;;;;;;;3.10;1.80;;;10.60;95.50;;;10.31;84.93;96081.69;5118742;27;20458;-77
2022/09/27 02:07:14;;;;;;;1.60;1.50;;;10.60;95.60;;;10.47;84.17;96096.94;5098974;28;20826;-77
2022/09/27 02:09:48;;;;;;;2.50;1.50;;;10.50;95.00;;;10.34;84.61;96084.69;5123305;27;20458;-76
2022/09/27 02:12:21;;;;;;;1.60;1.50;;;10.50;95.10;;;10.42;84.10;96083.41;5118050;27;20465;-77
2022/09/27 02:14:53;;;;;;;1.47;1.37;;;10.50;95.40;;;10.51;83.89;96078.31;5102092;27;20586;-74
2022/09/27 02:17:31;;;;;;;3.90;1.60;;;10.50;95.70;;;10.41;84.27;96076.38;5122958;27;20739;-75
2022/09/27 02:20:08;;;;;;;2.97;1.53;;;10.50;96.30;;;10.34;84.81;96081.16;5101713;28;20471;-76
2022/09/27 02:22:39;;;;;;;2.20;1.30;;;10.50;95.90;;;10.67;84.35;96079.19;5107192;27;20925;-76
2022/09/27 02:25:18;;;;;;;1.40;1.13;;;10.60;96.10;;;10.54;84.12;96068.88;5123167;27;20487;-76
2022/09/27 02:27:54;;;;;;;1.40;1.30;;;10.60;96.00;;;10.57;83.68;96065.66;5122538;27;20461;-76
2022/09/27 02:30:22;;;;;;;1.00;1.00;;;10.60;96.00;;;10.72;83.52;96071.13;5101874;27;20447;-78
2022/09/27 02:32:50;;;;;;;2.50;1.40;;;10.60;96.30;;;10.15;85.52;96057.31;5105655;28;21097;-76
2022/09/27 02:35:24;;;;;;;1.27;1.17;;;10.50;96.90;;;10.30;86.04;96069.28;5124225;27;20978;-77
2022/09/27 02:37:52;;;;;;;2.20;1.37;;;10.40;97.30;;;10.06;86.60;96039.97;5135355;27;20455;-76
2022/09/27 02:40:19;;;;;;;1.10;1.00;;;10.40;98.90;;;9.52;85.54;95952.81;5109596;27;20520;-77
2022/09/27 02:42:48;;;;;;;2.10;1.07;;;10.30;97.80;;;10.11;87.33;96056.22;5102754;27;20508;-76
2022/09/27 02:45:17;;;;;;;1.70;1.20;;;10.20;99.30;;;10.13;87.49;96055.94;5098165;27;20448;-76
2022/09/27 02:47:59;;;;;;;1.70;1.03;;;10.20;99.60;;;10.10;86.64;96032.19;5129388;27;20544;-76
2022/09/27 02:50:51;;;;;;;1.73;1.20;;;10.30;99.90;;;10.20;86.61;96060.03;5122240;27;20517;-80
2022/09/27 02:53:34;;;;;;;1.17;1.10;;;10.20;99.90;;;9.70;87.96;95999.28;5123402;27;20983;-77
2022/09/27 02:56:10;;;;;;;2.20;1.50;;;10.20;99.90;;;10.01;89.37;96050.75;5100820;28;20450;-76
2022/09/27 02:58:49;;;;;;;1.83;1.60;;;10.20;99.90;;;10.20;89.16;96049.25;5128587;27;21050;-76
2022/09/27 03:01:27;;;;;;;1.73;1.50;;;10.20;99.90;;;10.27;88.03;96042.81;5112510;27;20466;-77
2022/09/27 03:04:05;;;;;;;1.80;1.40;;;10.30;99.90;;;10.18;88.70;96046.00;5113257;27;20923;-76
2022/09/27 03:06:33;;;;;;;1.90;1.70;;;10.30;99.90;;;10.11;87.93;96040.03;5112934;27;20469;-74
2022/09/27 03:09:00;;;;;;;3.40;1.40;;;10.20;99.90;;;10.24;88.12;96049.53;5112354;28;20448;-75
2022/09/27 03:11:28;;;;;;;1.70;1.23;;;10.30;99.90;;;10.20;87.80;96021.47;5093271;27;20466;-76
2022/09/27 03:13:55;;;;;;;1.80;1.60;;;10.30;99.90;;;9.82;88.27;95939.75;5114358;27;20476;-79
2022/09/27 03:16:22;;;;;;;2.70;2.20;;;10.30;99.90;;;10.41;87.60;96038.59;5110936;28;20531;-76
2022/09/27 03:18:50;;;;;;;1.70;1.60;;;10.40;99.90;;;10.52;87.11;96046.72;5107295;27;20447;-76
2022/09/27 03:21:18;;;;;;;2.57;1.43;;;10.40;99.90;;;10.35;88.00;96036.91;5100529;27;20995;-76
2022/09/27 03:23:46;;;;;;;2.60;2.10;;;10.30;99.90;;;9.64;87.94;95966.91;5114712;27;20973;-75
2022/09/27 03:26:13;;;;;;;3.33;1.70;;;10.30;99.90;;;10.07;88.22;96018.16;5116904;27;20458;-78
2022/09/27 03:28:41;;;;;;;2.13;1.53;;;10.30;99.90;;;10.13;88.48;96016.28;5122382;27;20969;-76
2022/09/27 03:31:09;;;;;;;1.70;1.60;;;10.30;99.90;;;10.15;88.28;96021.41;5116382;27;20905;-76
2022/09/27 03:33:36;;;;;;;1.80;1.70;;;10.30;99.90;;;10.14;88.98;96049.47;5111834;27;20794;-77
2022/09/27 03:36:03;;;;;;;1.67;1.50;;;10.30;99.90;;;10.33;88.74;96036.34;5116381;27;20527;-77
2022/09/27 03:38:32;;;;;;;2.57;1.77;;;10.30;99.90;;;10.24;88.60;96036.03;5117340;27;20461;-76
2022/09/27 03:40:59;;;;;;;2.30;2.10;;;10.30;99.90;;;10.25;88.65;96043.06;5103664;28;20467;-75
2022/09/27 03:43:26;;;;;;;2.50;2.20;;;10.30;99.90;;;10.31;88.64;96033.09;5118729;27;20464;-76
2022/09/27 03:45:54;;;;;;;1.50;1.40;;;10.40;99.90;;;10.39;89.06;96026.41;5117647;27;20468;-77
2022/09/27 03:48:21;;;;;;;2.00;1.80;;;10.30;99.90;;;10.16;89.52;96031.94;5121350;27;20470;-76
2022/09/27 03:50:51;;;;;;;2.57;2.37;;;10.30;99.90;;;10.30;88.48;96018.00;5115208;27;20443;-78
2022/09/27 03:53:19;;;;;;;3.23;1.70;;;10.30;99.90;;;10.39;89.26;96026.41;5118392;27;20456;-77
2022/09/27 03:55:48;;;;;;;2.63;1.83;;;10.30;99.90;;;10.41;88.59;96014.31;5114329;27;20461;-75
2022/09/27 03:58:15;;;;;;;2.13;1.93;;;10.40;99.90;;;10.35;88.30;96026.94;5106970;27;20476;-77
2022/09/27 04:00:43;;;;;;;4.93;2.00;;;10.40;99.90;;;10.26;87.76;96014.19;5114072;27;20462;-78
2022/09/27 04:03:10;;;;;;;4.30;3.43;;;10.40;99.90;;;10.18;88.27;96027.09;5114610;27;20484;-77
2022/09/27 04:05:38;;;;;;;3.43;2.20;;;10.30;99.90;;;10.44;87.40;96021.88;5111306;27;20548;-77
2022/09/27 04:08:06;;;;;;;4.23;2.63;;;10.40;99.90;;;10.34;87.72;96010.97;5118819;27;20451;-77
2022/09/27 04:10:35;;;;;;;2.57;1.60;;;10.40;99.90;;;10.17;88.61;96014.69;5110565;27;20444;-76
2022/09/27 04:13:04;;;;;;;2.10;1.80;;;10.30;99.90;;;10.28;89.34;96029.03;5114594;27;20447;-76
2022/09/27 04:15:31;;;;;;;2.60;1.57;;;10.30;99.90;;;10.32;88.10;96023.94;5115054;27;20968;-77
2022/09/27 04:17:59;;;;;;;1.20;1.10;;;10.30;99.90;;;10.29;88.00;96021.75;5108726;27;20471;-76
2022/09/27 04:20:26;;;;;;;2.50;1.30;;;10.30;99.90;;;10.35;88.68;96015.31;5131130;27;20941;-79
2022/09/27 04:22:53;;;;;;;1.97;1.40;;;10.30;99.90;;;10.39;88.27;96034.50;5131305;27;20477;-76
2022/09/27 04:25:21;;;;;;;1.63;1.00;;;10.30;99.90;;;9.82;89.19;95948.69;5116714;27;20470;-76
2022/09/27 04:27:54;;;;;;;2.00;1.27;;;10.30;99.90;;;9.89;89.70;95984.31;5110262;27;20454;-76
2022/09/27 04:30:23;;;;;;;1.20;1.10;;;10.30;99.90;;;10.28;90.30;96033.63;5131508;27;20478;-76
2022/09/27 04:32:52;;;;;;;2.33;2.10;;;10.30;99.90;;;10.15;90.04;96022.22;5127476;27;20646;-76
2022/09/27 04:38:04;;;;;;;2.00;1.53;;;10.30;99.90;;;10.39;87.85;96024.53;5121685;27;20544;-77
2022/09/27 04:40:35;;;;;;;1.10;1.00;;;10.30;99.90;;;10.57;87.84;96025.16;5123799;27;20470;-76
2022/09/27 04:43:03;;;;;;;1.70;1.40;;;10.40;99.90;;;10.45;87.50;96034.28;5119535;27;20483;-77
2022/09/27 04:45:32;;;;;;;2.97;1.57;;;10.40;99.90;;;10.32;87.97;96038.25;5096581;27;20454;-76
2022/09/27 04:48:00;;;;;;;1.30;1.20;;;10.40;99.90;;;10.02;90.20;96068.56;5118075;27;20465;-76
2022/09/27 04:50:27;;;;;;;5.93;1.20;;;10.20;99.90;;;9.75;89.54;96062.19;5123566;27;20459;-78
2022/09/27 04:52:55;;;;;;;1.97;1.60;;;10.00;99.90;;;9.84;88.78;96067.91;5120877;27;20956;-72
2022/09/27 04:55:22;;;;;;;2.80;1.50;;;10.00;99.90;;;9.42;84.13;96045.19;5117455;27;20455;-73
2022/09/27 04:57:50;;;;;;;3.57;1.50;;;9.90;93.60;;;9.49;85.44;96067.34;5121997;27;20453;-81
2022/09/27 05:00:18;;;;;;;4.70;1.70;;;9.70;95.40;;;9.47;85.19;96063.28;5100208;27;20461;-73
2022/09/27 05:02:48;;;;;;;2.90;1.87;;;9.70;96.20;;;9.09;85.53;96006.63;5108719;28;20504;-75
2022/09/27 05:05:16;;;;;;;6.10;1.63;;;9.60;96.60;;;9.42;85.75;96072.16;5101215;28;20881;-74
2022/09/27 05:07:44;;;;;;;2.30;1.53;;;9.60;96.80;;;9.45;85.97;96058.16;5119023;27;20460;-76
2022/09/27 05:10:12;;;;;;;3.03;1.77;;;9.60;97.80;;;9.48;85.92;96073.81;5124917;28;20455;-74
2022/09/27 05:12:39;;;;;;;5.17;1.53;;;9.60;97.80;;;9.38;85.96;96067.53;5107801;28;20463;-76
2022/09/27 05:15:08;;;;;;;2.77;1.90;;;9.60;97.10;;;9.06;86.34;96005.25;5107166;28;20464;-81
2022/09/27 05:17:36;;;;;;;1.80;1.70;;;9.60;98.20;;;9.61;86.05;96080.66;5098102;28;20456;-76
2022/09/27 05:20:06;;;;;;;4.23;1.77;;;9.60;99.20;;;9.56;86.91;96077.91;5097067;28;20457;-71
2022/09/27 05:22:33;;;;;;;2.30;1.43;;;9.50;99.90;;;9.41;85.35;96067.00;5104495;28;20476;-78
2022/09/27 05:25:00;;;;;;;5.33;4.93;;;9.60;97.40;;;9.67;85.78;96086.09;5121423;28;20858;-75
2022/09/27 05:27:29;;;;;;;1.90;1.17;;;9.60;99.20;;;9.62;85.62;96093.06;5109787;27;20463;-71
2022/09/27 05:29:59;;;;;;;3.73;2.30;;;9.60;97.30;;;9.77;85.82;96094.25;5105173;28;20453;-67
2022/09/27 05:32:26;;;;;;;2.23;1.60;;;9.60;99.10;;;9.70;85.90;96094.47;5115141;28;20459;-74
2022/09/27 05:34:54;;;;;;;6.00;2.17;;;9.60;99.50;;;9.63;86.36;96099.28;5096367;28;20458;-68
2022/09/27 05:37:22;;;;;;;3.77;1.67;;;9.60;99.90;;;9.65;86.36;96105.22;5118563;28;20492;-74
2022/09/27 05:39:49;;;;;;;4.17;2.30;;;9.70;99.10;;;9.58;87.27;96097.34;5116983;28;20472;-69
2022/09/27 05:42:18;;;;;;;4.37;2.20;;;9.60;99.90;;;9.47;89.15;96095.63;5095842;28;20987;-68
2022/09/27 05:44:46;;;;;;;2.93;2.03;;;9.60;99.90;;;9.54;88.07;96085.47;5101343;28;20551;-70
2022/09/27 05:47:14;;;;;;;2.90;1.73;;;9.60;99.90;;;9.58;88.35;96099.25;5093751;28;20465;-79
2022/09/27 05:49:41;;;;;;;2.73;1.90;;;9.60;99.90;;;9.60;87.94;96100.59;5117598;28;20460;-73
2022/09/27 05:52:08;;;;;;;2.67;1.70;;;9.70;99.90;;;9.75;88.15;96105.31;5096990;28;20447;-69
2022/09/27 05:54:37;;;;;;;4.00;2.10;;;9.70;99.90;;;9.83;87.90;96106.72;5113930;28;20470;-71
2022/09/27 05:57:06;;;;;;;3.23;2.00;;;9.80;99.90;;;9.73;87.31;96106.63;5116549;28;20465;-74
2022/09/27 05:59:34;;;;;;;2.20;1.80;;;9.80;99.90;;;9.81;88.30;96113.44;5099415;28;20496;-78
2022/09/27 06:02:01;;;;;;;4.80;2.20;;;9.90;99.90;;;9.92;87.18;96118.66;5109710;28;20482;-76
2022/09/27 06:04:28;;;;;;;4.97;2.57;;;9.90;99.90;;;9.96;88.37;96110.88;5107292;28;21030;-70
2022/09/27 06:06:57;;;;;;;3.33;2.17;;;10.00;99.90;;;9.68;88.49;96118.19;5114950;28;21040;-77
2022/09/27 06:09:27;;;;;;;2.30;2.20;;;9.90;99.90;;;9.59;88.97;96117.84;5103500;28;20536;-71
2022/09/27 06:11:55;;;;;;;3.40;2.07;;;9.80;99.90;;;9.70;88.06;96116.03;5093937;28;20545;-74
2022/09/27 06:14:23;;;;;;;4.00;2.50;;;9.90;99.90;;;9.61;89.26;96123.78;5117149;28;20463;-71
2022/09/27 06:16:50;;;;;;;3.70;2.60;;;9.80;99.90;;;9.80;89.30;96119.91;5102845;28;20481;-76
2022/09/27 06:19:17;;;;;;;4.30;2.63;;;9.80;99.90;;;9.89;87.91;96124.56;5114437;27;21000;-72
2022/09/27 06:21:44;;;;;;;2.60;2.13;;;9.90;99.90;;;9.80;88.70;96125.31;5114096;27;20949;-72
2022/09/27 06:24:12;;;;;;;2.80;2.60;;;9.90;99.90;;;9.75;88.77;96131.47;5092073;27;20460;-75
2022/09/27 06:26:39;;;;;;;3.70;2.77;;;9.90;99.90;;;9.68;88.85;96128.19;5112418;27;21019;-76
2022/09/27 06:29:08;;;;;;;2.77;2.50;;;9.90;99.90;;;9.76;87.95;96135.78;5107599;27;20932;-74
2022/09/27 06:31:36;;;;;;;3.13;2.90;;;9.90;99.90;;;9.99;87.68;96133.84;5095009;27;21190;-70
2022/09/27 06:34:03;;;;;;;3.87;2.77;;;9.90;99.90;;;10.08;86.92;96134.97;5092347;27;20450;-79
2022/09/27 06:36:32;;;;;;;3.80;3.23;;;10.10;99.50;;;10.08;86.55;96134.97;5115298;27;20466;-71
2022/09/27 06:39:00;;;;;;;3.40;2.90;;;10.10;99.70;;;10.10;87.32;96135.53;5094493;27;20505;-75
2022/09/27 06:41:28;;;;;;;6.87;3.40;;;10.10;99.90;;;10.04;87.07;96134.69;5113088;27;20471;-72
2022/09/27 06:43:56;;;;;;;2.77;2.07;;;10.10;98.70;;;10.09;86.10;96143.88;5099500;27;20570;-70
2022/09/27 06:46:24;;;;;;;4.23;2.13;;;10.20;97.50;;;10.27;85.20;96145.38;5115827;27;21002;-76
2022/09/27 06:48:52;;;;;;;2.70;2.30;;;10.20;97.40;;;10.29;85.04;96145.94;5105668;27;20459;-69
2022/09/27 06:51:20;;;;;;;5.20;2.10;;;10.30;96.40;;;9.84;85.55;96086.78;5099587;27;20488;-75
2022/09/27 06:53:47;;;;;;;2.10;1.90;;;10.20;97.40;;;10.24;83.68;96151.28;5115287;27;20467;-74
2022/09/27 06:56:14;;;;;;;3.70;2.20;;;10.30;95.30;;;10.29;85.59;96164.81;5112575;27;20469;-72
2022/09/27 07:01:29;;;;;;;2.30;1.83;;;10.20;94.60;;;10.15;85.30;96164.44;5095244;27;20471;-74
2022/09/27 07:03:57;;;;;;;2.70;1.63;;;10.20;95.20;;;10.30;84.88;96167.25;5123803;27;20470;-70
2022/09/27 07:06:26;;;;;;;2.07;1.53;;;10.30;96.30;;;9.85;84.39;96101.88;5101059;27;20457;-74
2022/09/27 07:08:54;;;;;;;2.40;1.63;;;10.30;94.50;;;10.27;82.51;96172.38;5113893;27;20512;-77
2022/09/27 07:11:24;;;;;;;1.60;1.20;;;10.40;93.70;;;10.16;83.36;96180.38;5100007;28;20528;-70
2022/09/27 07:13:52;;;;;;;2.13;1.90;;;10.30;93.00;;;10.00;84.94;96190.22;5115877;27;20458;-74
2022/09/27 07:16:19;;;;;;;3.47;1.60;;;10.20;94.90;;;9.77;86.03;96202.13;5118934;27;20465;-70
2022/09/27 07:18:49;;;;;;;1.40;1.30;;;10.00;96.20;;;9.61;86.72;96210.06;5107324;27;20446;-77
2022/09/27 07:21:16;;;;;;;1.30;1.10;;;9.90;97.70;;;9.37;85.10;96203.34;5106067;27;20447;-71
2022/09/27 07:23:44;;;;;;;1.50;1.00;;;9.80;95.30;;;9.53;86.68;96212.41;5115395;27;20480;-70
2022/09/27 07:26:11;;;;;;;0.77;0.77;;;9.80;97.50;;;9.67;85.83;96221.72;5120729;27;20482;-69
2022/09/27 07:28:40;;;;;;;1.17;1.07;;;9.80;97.60;;;9.59;85.20;96228.38;5110729;27;20682;-75
2022/09/27 07:31:09;;;;;;;1.43;1.20;;;9.90;95.40;;;9.77;83.60;96229.09;5117850;27;20521;-68
2022/09/27 07:33:36;;;;;;;1.07;0.90;;;10.00;94.20;;;9.77;83.95;96229.09;5093193;28;20446;-67
2022/09/27 07:36:10;;;;;;;1.10;1.00;;;10.00;94.00;;;9.61;83.29;96228.16;5117569;27;20458;-69
2022/09/27 07:38:37;;;;;;;1.37;1.03;;;9.90;92.90;;;9.93;82.02;96238.19;5092184;28;20453;-71
2022/09/27 07:41:09;;;;;;;1.70;1.33;;;10.00;92.40;;;9.99;81.68;96236.34;5097417;27;21002;-74
2022/09/27 07:43:37;;;;;;;1.17;1.00;;;10.20;92.10;;;10.19;81.56;96244.63;5118631;27;20506;-74
2022/09/27 07:46:04;;;;;;;1.23;1.13;;;10.30;91.90;;;10.19;80.81;96249.22;5115487;27;20466;-69
2022/09/27 07:48:32;;;;;;;0.90;0.80;;;10.40;91.30;;;10.07;79.17;96249.38;5114078;27;20535;-70
2022/09/27 07:50:59;;;;;;;2.43;1.10;;;10.30;89.60;;;10.77;76.98;96249.41;5106498;27;20467;-69
2022/09/27 07:53:28;;;;;;;1.93;1.00;;;10.40;90.30;;;10.58;78.09;96250.91;5099021;27;20533;-71
2022/09/27 07:55:56;;;;;;;1.40;1.10;;;10.30;90.10;;;10.57;77.22;96252.78;5107849;27;20456;-74
2022/09/27 07:58:23;;;;;;;2.13;1.07;;;10.30;89.80;;;10.98;77.49;96256.84;5100518;27;20454;-70
2022/09/27 08:00:50;;;;;;;1.33;1.20;;;10.40;91.40;;;11.00;77.41;96269.03;5114088;27;20465;-72
2022/09/27 08:03:18;;;;;;;1.37;1.27;;;10.50;90.70;;;11.14;76.08;96265.84;5117816;27;20481;-73
2022/09/27 08:05:47;;;;;;;1.30;1.20;;;10.60;90.00;;;10.90;76.14;96274.38;5096889;27;20457;-71
2022/09/27 08:08:15;;;;;;;4.20;1.33;;;10.50;88.50;;;11.02;75.47;96280.38;5118516;27;20452;-74
2022/09/27 08:10:45;;;;;;;1.30;1.10;;;10.50;88.80;;;11.38;74.73;96276.25;5092108;27;20466;-73
2022/09/27 08:13:16;;;;;;;2.57;1.43;;;10.70;88.90;;;11.72;73.58;96281.25;5115882;27;20464;-73
2022/09/27 08:15:44;;;;;;;1.57;1.00;;;11.00;88.00;;;11.73;72.89;96274.75;5115783;27;20891;-74
2022/09/27 08:18:11;;;;;;;1.93;0.90;;;11.30;86.30;;;11.92;72.06;96290.53;5114317;27;20548;-72
2022/09/27 08:20:39;;;;;;;1.60;1.23;;;11.40;85.60;;;12.27;71.87;96292.50;5115613;27;20516;-73
2022/09/27 08:23:07;;;;;;;1.20;1.10;;;11.60;86.10;;;12.21;71.53;96282.75;5108236;27;20589;-77
2022/09/27 08:25:34;;;;;;;1.20;1.10;;;11.70;85.20;;;12.40;68.92;96296.59;5111430;27;20456;-71
2022/09/27 08:28:04;;;;;;;4.20;1.30;;;11.90;83.40;;;12.40;68.81;96291.19;5091266;28;20451;-75
2022/09/27 08:30:32;;;;;;;0.97;0.97;;;11.90;82.70;;;12.55;68.06;96292.28;5115763;27;20456;-72
2022/09/27 08:33:02;;;;;;;1.00;0.90;;;12.10;82.40;;;12.87;67.49;96289.25;5112507;27;20451;-70
2022/09/27 08:35:32;;;;;;;0.70;0.70;;;12.20;82.30;;;12.87;67.22;96288.47;5087548;27;20463;-75
2022/09/27 08:38:04;;;;;;;1.10;1.00;;;12.40;82.00;;;12.77;66.89;96258.66;5114634;27;20584;-72
2022/09/27 08:40:46;;;;;;;0.60;0.50;;;12.50;81.40;;;13.02;64.84;96299.28;5112304;27;20630;-74
2022/09/27 08:43:27;;;;;;;1.40;0.93;;;12.50;80.30;;;12.96;66.05;96308.50;5095319;27;20475;-73
2022/09/27 08:46:07;;;;;;;1.70;1.00;;;12.50;80.90;;;13.46;64.77;96308.72;5109317;27;20458;-71
2022/09/27 08:48:38;;;;;;;0.90;0.67;;;12.70;80.40;;;12.89;63.39;96307.97;5111670;27;20460;-70
2022/09/27 08:51:11;;;;;;;0.70;0.70;;;12.60;78.60;;;12.92;65.35;96312.06;5088319;28;20457;-73
2022/09/27 08:53:44;;;;;;;0.80;0.73;;;12.30;79.90;;;13.45;64.42;96309.00;5119438;27;20460;-71
2022/09/27 08:56:13;;;;;;;0.70;0.70;;;12.70;80.30;;;13.42;63.62;96315.75;5109209;27;20451;-71
2022/09/27 08:58:49;;;;;;;2.00;1.00;;;12.90;79.80;;;12.85;64.42;96312.31;5116108;27;20474;-72
2022/09/27 09:01:18;;;;;;;0.87;0.70;;;12.60;78.60;;;12.69;64.78;96315.03;5112561;27;20452;-74
2022/09/27 09:03:50;;;;;;;1.23;0.70;;;12.40;78.90;;;13.15;65.05;96324.22;5113497;27;20484;-69
2022/09/27 09:06:24;;;;;;;0.87;0.80;;;12.40;80.00;;;13.07;64.43;96316.63;5113136;27;20460;-73
2022/09/27 09:09:04;;;;;;;0.90;0.80;;;12.50;79.10;;;13.35;64.34;96309.00;5097827;28;20446;-73
2022/09/27 09:15:03;;;;;;;1.03;0.70;;;12.50;79.60;;;12.64;65.03;96328.56;5109697;28;20663;-71
2022/09/27 09:17:52;;;;;;;1.93;0.80;;;12.40;78.90;;;12.26;65.64;96333.41;5093592;28;20436;-71
2022/09/27 09:20:37;;;;;;;2.13;0.80;;;12.00;79.00;;;12.36;66.06;96333.44;5112002;28;20543;-71
2022/09/27 09:23:38;;;;;;;2.13;0.73;;;11.90;79.60;;;11.69;68.91;96338.59;5118464;28;20480;-74
2022/09/27 09:26:15;;;;;;;0.77;0.77;;;11.60;80.10;;;12.14;68.56;96339.88;5091859;28;21017;-71
2022/09/27 09:29:05;;;;;;;1.40;0.70;;;11.60;81.60;;;11.39;69.96;96285.97;5113360;28;20458;-71
2022/09/27 09:31:41;;;;;;;2.80;1.03;;;11.40;82.00;;;11.10;73.73;96351.22;5109410;28;20455;-76
2022/09/27 09:34:16;;;;;;;1.00;0.80;;;11.10;83.10;;;10.93;75.72;96341.38;5109553;28;20484;-75
2022/09/27 09:36:51;;;;;;;1.00;0.90;;;10.70;86.30;;;11.09;75.83;96339.63;5114633;28;20468;-71
2022/09/27 09:39:22;;;;;;;1.10;1.00;;;10.70;89.10;;;10.93;76.73;96341.38;5095442;28;21016;-71
2022/09/27 09:42:05;;;;;;;1.00;1.00;;;10.70;90.00;;;11.34;76.89;96349.78;5104830;28;20838;-73
2022/09/27 09:44:42;;;;;;;1.97;1.27;;;10.80;91.00;;;11.72;74.89;96352.41;5112942;28;20477;-71
2022/09/27 09:47:26;;;;;;;2.90;1.27;;;11.10;90.20;;;12.29;73.33;96343.69;5117251;28;20455;-73
2022/09/27 09:50:00;;;;;;;1.10;1.00;;;11.50;88.60;;;12.65;70.95;96340.22;5115550;28;20516;-73
2022/09/27 09:52:38;;;;;;;1.40;1.27;;;12.00;85.60;;;13.13;71.21;96345.38;5091744;28;20451;-70
2022/09/27 09:55:16;;;;;;;2.30;1.20;;;12.30;86.30;;;13.15;68.53;96335.06;5110722;27;20513;-71
2022/09/27 09:58:01;;;;;;;1.50;1.13;;;12.70;84.70;;;13.36;68.91;96332.31;5104900;27;20449;-73
2022/09/27 10:00:29;;;;;;;1.97;1.43;;;12.80;83.70;;;13.55;68.61;96332.56;5104165;27;20622;-77
2022/09/27 10:03:00;;;;;;;1.00;1.00;;;12.90;83.70;;;13.44;67.50;96334.50;5120248;27;20444;-71
2022/09/27 10:05:29;;;;;;;2.47;1.20;;;12.90;82.80;;;13.48;66.88;96332.84;5114775;27;20521;-76
2022/09/27 10:08:00;;;;;;;1.37;1.00;;;12.90;82.60;;;13.17;66.14;96343.75;5113478;27;20496;-71
2022/09/27 10:10:28;;;;;;;1.03;0.93;;;12.80;81.50;;;12.84;66.62;96340.50;5115225;27;20465;-80
2022/09/27 10:12:57;;;;;;;1.50;0.80;;;12.60;81.20;;;12.93;66.88;96347.00;5117082;27;20457;-70
2022/09/27 10:15:29;;;;;;;1.17;1.03;;;12.40;81.10;;;12.92;65.35;96339.94;5106401;27;20452;-71
2022/09/27 10:17:59;;;;;;;1.10;0.90;;;12.50;80.40;;;12.26;67.33;96347.75;5117128;27;20472;-68
2022/09/27 10:20:33;;;;;;;0.90;0.80;;;12.30;80.40;;;12.48;67.69;96344.00;5093864;27;20449;-80
2022/09/27 10:23:07;;;;;;;1.27;1.17;;;12.40;80.90;;;12.70;67.62;96342.94;5099173;27;20557;-70
2022/09/27 10:25:54;;;;;;;0.80;0.80;;;12.60;81.10;;;13.13;67.01;96339.94;5112368;27;20489;-70
2022/09/27 10:28:32;;;;;;;1.50;1.40;;;12.80;81.20;;;13.04;65.67;96342.38;5108299;27;20454;-73
2022/09/27 10:31:03;;;;;;;0.97;0.93;;;13.00;80.60;;;12.63;66.48;96356.75;5108084;27;20454;-72
2022/09/27 10:33:32;;;;;;;1.10;0.73;;;12.70;79.70;;;12.28;66.88;96347.47;5099653;27;20456;-71
2022/09/27 10:36:01;;;;;;;1.10;1.00;;;12.50;79.70;;;12.28;69.11;96347.47;5109149;27;20461;-72
2022/09/27 10:38:32;;;;;;;1.53;0.90;;;12.30;81.20;;;12.34;69.02;96351.81;5113021;27;20465;-70
2022/09/27 10:41:21;;;;;;;1.03;0.90;;;12.40;81.30;;;12.06;68.97;96345.81;5116878;27;20445;-69
2022/09/27 10:43:48;;;;;;;1.13;1.03;;;12.10;81.00;;;12.18;70.78;96354.50;5099594;27;20477;-77
2022/09/27 10:46:26;;;;;;;1.20;1.10;;;12.10;82.40;;;11.76;70.38;96331.84;5095641;27;20455;-75
2022/09/27 10:49:16;;;;;;;0.90;0.90;;;11.90;82.40;;;12.04;70.58;96358.78;5112692;27;20460;-73